createdAt,value
2023-01-19T00:01:31.736Z,98481.19
2023-01-19T00:04:01.529Z,98476.06
2023-01-19T00:06:31.883Z,98459.78
2023-01-19T00:08:59.767Z,98480.81
2023-01-19T00:11:27.373Z,98477.31
2023-01-19T00:13:55.009Z,98471.41
2023-01-19T00:16:23.560Z,98467.41
2023-01-19T00:18:53.269Z,98470.34
2023-01-19T00:21:23.381Z,98480.53
2023-01-19T00:23:53.499Z,98465.72
2023-01-19T00:26:23.820Z,98471.41
2023-01-19T00:28:53.886Z,98470.34
2023-01-19T00:31:21.921Z,98467.34
2023-01-19T00:33:51.720Z,98464.91
2023-01-19T00:36:19.694Z,98451.41
2023-01-19T00:38:47.324Z,98463.69
2023-01-19T00:41:16.766Z,98468.50
2023-01-19T00:43:43.682Z,98472.81
2023-01-19T00:46:11.392Z,98470.69
2023-01-19T00:48:39.038Z,98465.81
2023-01-19T00:51:06.748Z,98473.06
2023-01-19T00:53:36.659Z,98466.88
2023-01-19T00:56:04.319Z,98460.13
2023-01-19T00:58:31.886Z,98450.44
2023-01-19T01:01:03.619Z,98450.69
2023-01-19T01:03:31.492Z,98457.12
2023-01-19T01:06:03.645Z,98459.56
2023-01-19T01:08:33.688Z,98453.06
2023-01-19T01:11:02.190Z,98457.62
2023-01-19T01:13:30.073Z,98449.75
2023-01-19T01:15:58.101Z,98456.75
2023-01-19T01:18:26.074Z,98451.22
2023-01-19T01:20:56.056Z,98453.66
2023-01-19T01:23:24.038Z,98457.34
2023-01-19T01:25:51.649Z,98471.31
2023-01-19T01:28:19.276Z,98462.72
2023-01-19T01:30:46.895Z,98464.25
2023-01-19T01:33:41.128Z,98467.75
2023-01-19T01:36:07.824Z,98459.94
2023-01-19T01:38:35.449Z,98456.47
2023-01-19T01:41:03.202Z,98457.53
2023-01-19T01:43:53.531Z,98452.97
2023-01-19T01:46:21.483Z,98459.63
2023-01-19T01:49:04.232Z,98458.81
2023-01-19T01:51:49.682Z,98461.25
2023-01-19T01:54:20.654Z,98463.38
2023-01-19T01:57:00.280Z,98477.84
2023-01-19T01:59:39.231Z,98481.03
2023-01-19T02:02:28.077Z,98493.63
2023-01-19T02:05:04.118Z,98497.13
2023-01-19T02:07:59.491Z,98504.38
2023-01-19T02:10:44.852Z,98504.38
2023-01-19T02:13:19.827Z,98506.00
2023-01-19T02:15:52.836Z,98499.00
2023-01-19T02:18:23.137Z,98474.28
2023-01-19T02:21:27.714Z,98440.44
2023-01-19T02:23:57.677Z,98432.31
2023-01-19T02:26:38.918Z,98450.53
2023-01-19T02:29:10.499Z,98463.31
2023-01-19T02:31:40.168Z,98491.50
2023-01-19T02:37:13.773Z,98512.16
2023-01-19T02:39:50.793Z,98498.19
2023-01-19T02:42:25.275Z,98476.63
2023-01-19T02:44:55.515Z,98470.72
2023-01-19T02:47:23.866Z,98463.72
2023-01-19T02:50:01.727Z,98458.81
2023-01-19T02:52:29.727Z,98449.16
2023-01-19T02:55:03.929Z,98438.34
2023-01-19T02:58:32.993Z,98453.87
2023-01-19T03:01:39.707Z,98469.37
2023-01-19T03:04:35.899Z,98476.87
2023-01-19T03:07:03.433Z,98483.78
2023-01-19T03:09:43.536Z,98479.22
2023-01-19T03:12:34.328Z,98466.31
2023-01-19T03:15:14.484Z,98472.97
2023-01-19T03:17:45.790Z,98484.19
2023-01-19T03:20:16.824Z,98502.94
2023-01-19T03:22:45.595Z,98502.34
2023-01-19T03:25:16.948Z,98509.81
2023-01-19T03:27:47.932Z,98504.69
2023-01-19T03:30:25.244Z,98479.75
2023-01-19T03:32:59.889Z,98456.94
2023-01-19T03:35:32.781Z,98447.50
2023-01-19T03:38:03.952Z,98439.47
2023-01-19T03:40:33.709Z,98423.37
2023-01-19T03:43:03.734Z,98409.41
2023-01-19T03:45:35.616Z,98412.59
2023-01-19T03:48:03.930Z,98420.63
2023-01-19T03:50:32.122Z,98434.28
2023-01-19T03:53:14.874Z,98437.19
2023-01-19T03:55:45.742Z,98444.16
2023-01-19T03:58:13.304Z,98437.75
2023-01-19T04:00:41.785Z,98432.66
2023-01-19T04:03:22.188Z,98447.09
2023-01-19T04:05:51.869Z,98467.25
2023-01-19T04:08:19.617Z,98471.13
2023-01-19T04:10:47.253Z,98452.94
2023-01-19T04:13:15.261Z,98464.97
2023-01-19T04:15:42.962Z,98487.91
2023-01-19T04:18:13.079Z,98480.81
2023-01-19T04:20:40.729Z,98482.78
2023-01-19T04:23:09.705Z,98478.25
2023-01-19T04:25:40.392Z,98478.72
2023-01-19T04:28:07.969Z,98465.56
2023-01-19T04:30:37.707Z,98474.66
2023-01-19T04:33:05.385Z,98456.97
2023-01-19T04:35:34.292Z,98452.91
2023-01-19T04:38:01.917Z,98454.19
2023-01-19T04:40:33.226Z,98455.25
2023-01-19T04:43:01.168Z,98449.56
2023-01-19T04:45:29.128Z,98442.09
2023-01-19T04:47:56.706Z,98446.31
2023-01-19T04:50:27.846Z,98444.69
2023-01-19T04:52:55.442Z,98433.41
2023-01-19T04:55:23.536Z,98449.09
2023-01-19T04:57:51.119Z,98464.94
2023-01-19T05:00:19.292Z,98467.16
2023-01-19T05:02:48.648Z,98477.88
2023-01-19T05:05:18.314Z,98473.31
2023-01-19T05:07:46.951Z,98493.94
2023-01-19T05:10:14.569Z,98482.06
2023-01-19T05:12:42.574Z,98485.34
2023-01-19T05:15:11.274Z,98467.28
2023-01-19T05:17:39.011Z,98463.09
2023-01-19T05:20:07.228Z,98489.28
2023-01-19T05:22:34.888Z,98502.91
2023-01-19T05:25:02.889Z,98509.56
2023-01-19T05:27:30.484Z,98510.59
2023-01-19T05:29:58.186Z,98524.00
2023-01-19T05:32:28.160Z,98520.16
2023-01-19T05:34:55.740Z,98516.69
2023-01-19T05:37:23.476Z,98517.16
2023-01-19T05:39:51.109Z,98520.88
2023-01-19T05:42:18.711Z,98508.78
2023-01-19T05:44:46.319Z,98509.94
2023-01-19T05:47:14.087Z,98504.91
2023-01-19T05:49:41.666Z,98502.81
2023-01-19T05:52:09.293Z,98496.97
2023-01-19T05:54:37.617Z,98501.63
2023-01-19T05:57:06.213Z,98501.41
2023-01-19T05:59:33.827Z,98488.09
2023-01-19T06:02:01.478Z,98477.72
2023-01-19T06:04:29.282Z,98474.00
2023-01-19T06:06:57.870Z,98484.47
2023-01-19T06:09:27.914Z,98474.81
2023-01-19T06:11:56.598Z,98487.72
2023-01-19T06:14:27.715Z,98477.00
2023-01-19T06:16:57.849Z,98460.69
2023-01-19T06:19:25.577Z,98464.41
2023-01-19T06:21:53.352Z,98474.31
2023-01-19T06:24:24.042Z,98475.38
2023-01-19T06:26:52.124Z,98456.63
2023-01-19T06:29:19.952Z,98437.87
2023-01-19T06:31:47.503Z,98446.19
2023-01-19T06:34:15.398Z,98461.25
2023-01-19T06:36:43.659Z,98470.78
2023-01-19T06:39:11.313Z,98480.56
2023-01-19T06:41:39.688Z,98494.31
2023-01-19T06:44:12.242Z,98503.88
2023-01-19T06:46:42.227Z,98502.75
2023-01-19T06:49:09.979Z,98512.41
2023-01-19T06:51:37.603Z,98510.78
2023-01-19T06:54:05.767Z,98503.31
2023-01-19T06:56:35.811Z,98494.47
2023-01-19T06:59:03.880Z,98500.88
2023-01-19T07:01:32.852Z,98492.34
2023-01-19T07:04:00.652Z,98498.53
2023-01-19T07:06:31.173Z,98494.78
2023-01-19T07:09:04.782Z,98489.19
2023-01-19T07:11:32.622Z,98484.66
2023-01-19T07:14:03.493Z,98478.25
2023-01-19T07:16:31.272Z,98474.50
2023-01-19T07:18:58.904Z,98483.59
2023-01-19T07:21:29.126Z,98507.22
2023-01-19T07:23:57.200Z,98520.19
2023-01-19T07:26:27.904Z,98518.56
2023-01-19T07:28:55.671Z,98518.06
2023-01-19T07:31:23.379Z,98517.84
2023-01-19T07:33:51.075Z,98512.56
2023-01-19T07:36:18.719Z,98515.00
2023-01-19T07:38:48.830Z,98512.66
2023-01-19T07:41:16.585Z,98521.50
2023-01-19T07:43:44.137Z,98518.34
2023-01-19T07:46:11.922Z,98518.09
2023-01-19T07:48:39.935Z,98529.16
2023-01-19T07:51:12.961Z,98525.44
2023-01-19T07:53:43.212Z,98533.25
2023-01-19T07:56:14.702Z,98543.50
2023-01-19T07:58:45.834Z,98529.75
2023-01-19T08:01:16.946Z,98552.44
2023-01-19T08:03:44.992Z,98544.97
2023-01-19T08:06:28.876Z,98551.94
2023-01-19T08:08:56.597Z,98548.22
2023-01-19T08:11:24.568Z,98534.88
2023-01-19T08:13:52.407Z,98533.59
2023-01-19T08:16:20.153Z,98522.37
2023-01-19T08:18:47.827Z,98525.88
2023-01-19T08:21:15.597Z,98522.72
2023-01-19T08:23:43.454Z,98519.00
2023-01-19T08:26:29.268Z,98519.06
2023-01-19T08:29:02.257Z,98515.09
2023-01-19T08:31:31.317Z,98526.94
2023-01-19T08:34:00.318Z,98530.44
2023-01-19T08:36:30.940Z,98530.44
2023-01-19T08:39:03.705Z,98533.94
2023-01-19T08:41:33.545Z,98534.75
2023-01-19T08:44:01.259Z,98543.00
2023-01-19T08:46:29.193Z,98539.50
2023-01-19T08:48:56.950Z,98536.22
2023-01-19T08:51:24.958Z,98545.31
2023-01-19T08:53:55.101Z,98548.00
2023-01-19T08:56:22.903Z,98541.50
2023-01-19T08:59:03.432Z,98536.38
2023-01-19T09:01:38.155Z,98543.94
2023-01-19T09:04:08.651Z,98536.69
2023-01-19T09:06:36.294Z,98536.94
2023-01-19T09:09:05.292Z,98540.94
2023-01-19T09:11:33.270Z,98537.34
2023-01-19T09:14:01.021Z,98530.13
2023-01-19T09:16:29.479Z,98531.19
2023-01-19T09:18:57.420Z,98537.34
2023-01-19T09:21:25.152Z,98549.16
2023-01-19T09:23:54.867Z,98555.66
2023-01-19T09:26:25.154Z,98558.91
2023-01-19T09:28:53.035Z,98552.00
2023-01-19T09:31:21.518Z,98548.81
2023-01-19T09:33:49.450Z,98549.41
2023-01-19T09:36:17.176Z,98551.94
2023-01-19T09:38:44.939Z,98550.94
2023-01-19T09:41:22.904Z,98556.06
2023-01-19T09:43:57.877Z,98556.72
2023-01-19T09:46:33.964Z,98554.34
2023-01-19T09:49:06.771Z,98540.78
2023-01-19T09:51:40.737Z,98549.56
2023-01-19T09:54:45.676Z,98561.69
2023-01-19T09:57:16.087Z,98557.03
2023-01-19T09:59:47.838Z,98564.28
2023-01-19T10:02:38.156Z,98558.50
2023-01-19T10:05:30.739Z,98562.75
2023-01-19T10:08:13.477Z,98558.03
2023-01-19T10:10:46.589Z,98564.09
2023-01-19T10:13:35.055Z,98566.47
2023-01-19T10:16:11.852Z,98572.22
2023-01-19T10:18:47.519Z,98577.03
2023-01-19T10:21:24.062Z,98581.56
2023-01-19T10:24:12.914Z,98573.19
2023-01-19T10:26:52.825Z,98573.69
2023-01-19T10:29:39.105Z,98576.37
2023-01-19T10:32:13.412Z,98569.84
2023-01-19T10:34:43.756Z,98571.13
2023-01-19T10:37:34.135Z,98574.06
2023-01-19T10:40:11.077Z,98578.19
2023-01-19T10:42:41.470Z,98584.59
2023-01-19T10:45:25.132Z,98594.53
2023-01-19T10:47:54.963Z,98593.13
2023-01-19T10:50:34.809Z,98588.59
2023-01-19T10:53:05.807Z,98596.88
2023-01-19T10:55:43.101Z,98591.41
2023-01-19T10:58:31.456Z,98594.31
2023-01-19T11:01:16.217Z,98595.25
2023-01-19T11:03:46.685Z,98596.66
2023-01-19T11:06:22.404Z,98599.34
2023-01-19T11:08:52.536Z,98597.81
2023-01-19T11:11:22.313Z,98592.09
2023-01-19T11:14:09.576Z,98589.34
2023-01-19T11:16:40.051Z,98585.69
2023-01-19T11:19:22.369Z,98580.09
2023-01-19T11:21:50.105Z,98580.09
2023-01-19T11:24:18.262Z,98572.28
2023-01-19T11:27:13.404Z,98581.13
2023-01-19T11:29:57.391Z,98574.16
2023-01-19T11:35:04.157Z,98578.59
2023-01-19T11:37:35.189Z,98580.78
2023-01-19T11:40:14.353Z,98590.94
2023-01-19T11:42:42.189Z,98589.63
2023-01-19T11:45:18.929Z,98586.09
2023-01-19T11:47:49.705Z,98589.66
2023-01-19T11:50:34.552Z,98594.09
2023-01-19T11:53:14.387Z,98595.88
2023-01-19T11:55:45.212Z,98601.09
2023-01-19T11:58:18.536Z,98603.38
2023-01-19T12:01:14.025Z,98609.25
2023-01-19T12:03:50.101Z,98612.97
2023-01-19T12:06:31.172Z,98604.72
2023-01-19T12:09:22.728Z,98609.97
2023-01-19T12:11:59.635Z,98612.16
2023-01-19T12:14:56.918Z,98621.75
2023-01-19T12:17:31.288Z,98625.16
2023-01-19T12:20:15.828Z,98625.50
2023-01-19T12:22:51.755Z,98634.75
2023-01-19T12:25:33.248Z,98634.97
2023-01-19T12:28:01.473Z,98644.66
2023-01-19T12:30:31.342Z,98650.03
2023-01-19T12:33:33.307Z,98647.25
2023-01-19T12:36:27.728Z,98655.22
2023-01-19T12:38:58.007Z,98656.34
2023-01-19T12:41:39.339Z,98654.72
2023-01-19T12:44:14.607Z,98658.47
2023-01-19T12:47:24.323Z,98661.97
2023-01-19T12:49:56.608Z,98672.34
2023-01-19T12:52:30.881Z,98672.22
2023-01-19T12:55:01.530Z,98672.94
2023-01-19T12:57:48.162Z,98672.84
2023-01-19T13:00:31.012Z,98679.28
2023-01-19T13:03:01.586Z,98675.44
2023-01-19T13:05:33.092Z,98679.66
2023-01-19T13:08:04.816Z,98691.28
2023-01-19T13:11:00.708Z,98701.06
2023-01-19T13:13:36.913Z,98704.31
2023-01-19T13:16:20.099Z,98720.16
2023-01-19T13:19:18.174Z,98718.53
2023-01-19T13:21:48.784Z,98727.41
2023-01-19T13:24:20.919Z,98730.22
2023-01-19T13:26:51.744Z,98742.81
2023-01-19T13:29:42.439Z,98742.94
2023-01-19T13:32:19.431Z,98740.16
2023-01-19T13:35:02.155Z,98746.09
2023-01-19T13:37:39.886Z,98750.41
2023-01-19T13:40:12.989Z,98760.19
2023-01-19T13:42:42.981Z,98765.91
2023-01-19T13:45:19.701Z,98770.56
2023-01-19T13:47:52.948Z,98782.09
2023-01-19T13:50:32.761Z,98782.56
2023-01-19T13:53:01.458Z,98782.09
2023-01-19T13:55:32.788Z,98788.06
2023-01-19T13:58:01.491Z,98794.81
2023-01-19T14:00:34.124Z,98801.91
2023-01-19T14:03:21.477Z,98804.34
2023-01-19T14:05:57.009Z,98808.66
2023-01-19T14:08:25.707Z,98805.03
2023-01-19T14:10:53.362Z,98796.19
2023-01-19T14:13:25.078Z,98791.28
2023-01-19T14:15:57.123Z,98783.97
2023-01-19T14:18:31.232Z,98786.41
2023-01-19T14:21:06.137Z,98771.72
2023-01-19T14:23:45.025Z,98773.94
2023-01-19T14:26:42.542Z,98779.19
2023-01-19T14:29:32.768Z,98776.97
2023-01-19T14:32:08.326Z,98796.19
2023-01-19T14:34:46.924Z,98793.84
2023-01-19T14:37:19.877Z,98809.47
2023-01-19T14:39:51.982Z,98810.88
2023-01-19T14:42:27.666Z,98804.56
2023-01-19T14:45:00.764Z,98814.97
2023-01-19T14:47:46.395Z,98812.53
2023-01-19T14:50:33.033Z,98829.16
2023-01-19T14:53:07.429Z,98841.03
2023-01-19T14:55:47.626Z,98836.84
2023-01-19T14:58:17.976Z,98843.72
2023-01-19T15:00:46.811Z,98856.19
2023-01-19T15:03:18.590Z,98878.06
2023-01-19T15:05:48.184Z,98891.75
2023-01-19T15:08:23.038Z,98903.16
2023-01-19T15:10:50.862Z,98910.37
2023-01-19T15:13:28.256Z,98913.75
2023-01-19T15:15:55.969Z,98903.37
2023-01-19T15:18:28.012Z,98890.00
2023-01-19T15:21:02.744Z,98879.16
2023-01-19T15:23:34.031Z,98889.22
2023-01-19T15:26:05.851Z,98883.72
2023-01-19T15:28:38.348Z,98877.28
2023-01-19T15:31:06.199Z,98880.25
2023-01-19T15:33:34.481Z,98889.69
2023-01-19T15:36:02.165Z,98907.00
2023-01-19T15:38:32.769Z,98917.13
2023-01-19T15:41:02.971Z,98920.03
2023-01-19T15:43:33.027Z,98927.37
2023-01-19T15:46:02.788Z,98921.16
2023-01-19T15:48:30.451Z,98915.56
2023-01-19T15:51:00.467Z,98925.91
2023-01-19T15:53:29.515Z,98929.78
2023-01-19T15:55:57.471Z,98932.22
2023-01-19T15:58:28.047Z,98944.22
2023-01-19T16:00:57.831Z,98961.22
2023-01-19T16:03:27.032Z,98966.81
2023-01-19T16:05:55.096Z,98971.94
2023-01-19T16:08:22.782Z,98973.56
2023-01-19T16:10:50.975Z,98958.78
2023-01-19T16:13:20.629Z,98970.97
2023-01-19T16:15:48.346Z,98974.47
2023-01-19T16:18:16.387Z,98993.66
2023-01-19T16:20:46.454Z,98998.84
2023-01-19T16:23:15.362Z,99000.69
2023-01-19T16:25:43.386Z,99012.63
2023-01-19T16:28:11.295Z,99022.50
2023-01-19T16:30:38.949Z,99025.37
2023-01-19T16:33:11.750Z,99024.34
2023-01-19T16:35:41.779Z,99041.03
2023-01-19T16:38:09.798Z,99039.16
2023-01-19T16:40:37.831Z,99043.50
2023-01-19T16:43:06.626Z,99058.53
2023-01-19T16:45:56.170Z,99063.25
2023-01-19T16:48:23.761Z,99076.63
2023-01-19T16:51:06.394Z,99077.00
2023-01-19T16:53:35.562Z,99085.03
2023-01-19T16:56:08.178Z,99085.25
2023-01-19T16:58:38.289Z,99080.13
2023-01-19T17:01:19.889Z,99088.75
2023-01-19T17:03:47.887Z,99070.69
2023-01-19T17:06:18.606Z,99076.28
2023-01-19T17:08:46.265Z,99088.41
2023-01-19T17:11:22.715Z,99091.75
2023-01-19T17:14:02.401Z,99097.94
2023-01-19T17:16:33.604Z,99105.12
2023-01-19T17:19:04.434Z,99104.31
2023-01-19T17:21:35.233Z,99114.44
2023-01-19T17:24:03.221Z,99119.78
2023-01-19T17:26:32.149Z,99121.25
2023-01-19T17:29:06.040Z,99118.59
2023-01-19T17:31:34.821Z,99111.59
2023-01-19T17:34:02.842Z,99127.03
2023-01-19T17:36:31.866Z,99128.69
2023-01-19T17:39:01.623Z,99124.22
2023-01-19T17:41:36.023Z,99117.41
2023-01-19T17:44:05.378Z,99114.12
2023-01-19T17:46:35.683Z,99120.75
2023-01-19T17:49:09.395Z,99118.50
2023-01-19T17:51:37.616Z,99119.75
2023-01-19T17:54:05.294Z,99126.59
2023-01-19T17:56:38.678Z,99132.75
2023-01-19T17:59:08.186Z,99133.78
2023-01-19T18:01:39.817Z,99146.13
2023-01-19T18:04:10.712Z,99151.66
2023-01-19T18:06:41.234Z,99149.56
2023-01-19T18:09:09.131Z,99157.38
2023-01-19T18:11:37.264Z,99154.25
2023-01-19T18:14:07.355Z,99150.78
2023-01-19T18:16:36.141Z,99151.81
2023-01-19T18:19:03.818Z,99154.03
2023-01-19T18:21:31.424Z,99152.19
2023-01-19T18:24:02.134Z,99152.84
2023-01-19T18:26:31.364Z,99149.13
2023-01-19T18:28:59.921Z,99150.38
2023-01-19T18:31:31.365Z,99160.31
2023-01-19T18:33:59.045Z,99170.03
2023-01-19T18:36:27.890Z,99165.72
2023-01-19T18:38:55.510Z,99166.75
2023-01-19T18:41:25.666Z,99163.88
2023-01-19T18:43:58.256Z,99166.81
2023-01-19T18:46:27.792Z,99155.50
2023-01-19T18:48:55.490Z,99159.66
2023-01-19T18:51:23.088Z,99170.78
2023-01-19T18:53:50.730Z,99157.84
2023-01-19T18:56:18.385Z,99160.13
2023-01-19T18:58:46.311Z,99160.94
2023-01-19T19:01:34.985Z,99171.44
2023-01-19T19:04:05.542Z,99167.12
2023-01-19T19:06:34.141Z,99157.84
2023-01-19T19:09:05.241Z,99181.69
2023-01-19T19:11:32.970Z,99171.44
2023-01-19T19:14:02.878Z,99185.78
2023-01-19T19:16:33.355Z,99182.72
2023-01-19T19:19:02.796Z,99195.03
2023-01-19T19:21:30.372Z,99183.50
2023-01-19T19:23:59.172Z,99185.97
2023-01-19T19:26:28.647Z,99203.66
2023-01-19T19:28:58.689Z,99201.56
2023-01-19T19:31:29.886Z,99199.72
2023-01-19T19:33:58.827Z,99213.91
2023-01-19T19:36:31.917Z,99219.69
2023-01-19T19:39:00.693Z,99232.44
2023-01-19T19:41:32.303Z,99224.44
2023-01-19T19:44:02.923Z,99236.16
2023-01-19T19:46:30.571Z,99233.88
2023-01-19T19:48:58.218Z,99250.56
2023-01-19T19:51:30.787Z,99250.34
2023-01-19T19:54:05.600Z,99252.19
2023-01-19T19:56:35.890Z,99243.16
2023-01-19T19:59:03.490Z,99240.47
2023-01-19T20:01:34.537Z,99244.19
2023-01-19T20:04:08.281Z,99242.94
2023-01-19T20:06:38.972Z,99253.84
2023-01-19T20:09:14.124Z,99256.53
2023-01-19T20:11:45.070Z,99262.47
2023-01-19T20:14:16.704Z,99251.16
2023-01-19T20:16:45.046Z,99248.09
2023-01-19T20:19:15.019Z,99240.91
2023-01-19T20:21:43.388Z,99257.97
2023-01-19T20:24:17.150Z,99265.38
2023-01-19T20:26:48.139Z,99250.16
2023-01-19T20:29:19.339Z,99262.53
2023-01-19T20:31:50.935Z,99258.62
2023-01-19T20:34:23.456Z,99261.28
2023-01-19T20:36:53.449Z,99256.97
2023-01-19T20:39:24.531Z,99255.94
2023-01-19T20:41:52.767Z,99256.97
2023-01-19T20:44:23.497Z,99273.62
2023-01-19T20:46:53.390Z,99274.03
2023-01-19T20:49:22.497Z,99282.69
2023-01-19T20:51:51.875Z,99277.75
2023-01-19T20:54:21.851Z,99281.47
2023-01-19T20:56:51.981Z,99274.25
2023-01-19T20:59:21.752Z,99273.62
2023-01-19T21:01:51.968Z,99266.25
2023-01-19T21:04:19.694Z,99266.25
2023-01-19T21:06:47.678Z,99263.97
2023-01-19T21:09:16.522Z,99276.13
2023-01-19T21:11:44.177Z,99285.59
2023-01-19T21:14:11.787Z,99283.75
2023-01-19T21:16:39.892Z,99284.37
2023-01-19T21:19:07.920Z,99288.06
2023-01-19T21:21:39.913Z,99289.28
2023-01-19T21:24:07.663Z,99296.69
2023-01-19T21:26:35.897Z,99296.09
2023-01-19T21:29:04.518Z,99292.16
2023-01-19T21:31:32.396Z,99291.34
2023-01-19T21:34:00.053Z,99304.72
2023-01-19T21:36:28.076Z,99318.50
2023-01-19T21:39:00.468Z,99322.19
2023-01-19T21:41:30.967Z,99311.94
2023-01-19T21:43:59.922Z,99331.44
2023-01-19T21:46:30.475Z,99331.66
2023-01-19T21:49:00.091Z,99342.75
2023-01-19T21:51:29.313Z,99358.78
2023-01-19T21:53:59.650Z,99379.56
2023-01-19T21:56:30.932Z,99404.44
2023-01-19T21:59:03.092Z,99421.06
2023-01-19T22:01:34.684Z,99419.22
2023-01-19T22:04:02.391Z,99412.47
2023-01-19T22:06:32.826Z,99394.56
2023-01-19T22:09:00.792Z,99382.81
2023-01-19T22:11:30.020Z,99372.38
2023-01-19T22:13:59.582Z,99366.59
2023-01-19T22:16:28.768Z,99367.84
2023-01-19T22:19:01.971Z,99372.75
2023-01-19T22:21:35.535Z,99377.47
2023-01-19T22:24:04.825Z,99383.66
2023-01-19T22:26:34.106Z,99379.12
2023-01-19T22:29:03.110Z,99370.28
2023-01-19T22:31:31.105Z,99367.63
2023-01-19T22:33:59.489Z,99361.44
2023-01-19T22:36:31.401Z,99369.88
2023-01-19T22:39:01.617Z,99372.56
2023-01-19T22:41:33.903Z,99378.94
2023-01-19T22:44:03.821Z,99375.25
2023-01-19T22:46:34.426Z,99369.47
2023-01-19T22:49:02.961Z,99365.56
2023-01-19T22:51:31.728Z,99356.94
2023-01-19T22:54:01.988Z,99363.53
2023-01-19T22:56:31.637Z,99360.84
2023-01-19T22:59:00.204Z,99359.81
2023-01-19T23:01:40.132Z,99358.78
2023-01-19T23:04:10.868Z,99357.75
2023-01-19T23:06:39.379Z,99349.75
2023-01-19T23:09:12.470Z,99332.09
2023-01-19T23:11:42.651Z,99336.19
2023-01-19T23:14:14.838Z,99321.59
2023-01-19T23:16:42.611Z,99325.50
2023-01-19T23:19:12.466Z,99319.97
2023-01-19T23:21:40.549Z,99315.44
2023-01-19T23:24:08.550Z,99322.03
2023-01-19T23:26:39.156Z,99315.44
2023-01-19T23:29:12.739Z,99317.72
2023-01-19T23:31:43.818Z,99316.28
2023-01-19T23:34:13.190Z,99325.94
2023-01-19T23:36:46.210Z,99332.28
2023-01-19T23:39:17.238Z,99330.44
2023-01-19T23:41:45.252Z,99342.97
2023-01-19T23:44:12.942Z,99351.78
2023-01-19T23:46:43.865Z,99359.19
2023-01-19T23:49:11.939Z,99353.84
2023-01-19T23:51:40.718Z,99359.81
2023-01-19T23:54:08.767Z,99356.53
2023-01-19T23:56:38.772Z,99356.94
2023-01-19T23:59:12.684Z,99357.34
